поиск правила создать тему список тем настройки мобильная версия


Восстановить пароль

Зарегистрироваться

АН-26 разбился в Сирии

← возврат к списку сообщений

Добавить в мои закладки  ↓ ВНИЗ

Страницы: ← 12345...14151617  

voilo
Старожил форума
В Сирии при посадке на военной базе Хмеймим разбился транспортный самолет Ан-26. По предварительным данным, погибли 32 человека.
опубликовано: 06.03.2018 16:44
Comba18
Старожил форума
опубликовано: 06.03.2018 16:46
Арктур006
Старожил форума
500 м до полосы...
опубликовано: 06.03.2018 16:48
voilo
Старожил форума
"Причиной авиакатастрофы, по предварительной информации, могла стать техническая неисправность", - заявили в Минобороны РФ
опубликовано: 06.03.2018 16:48
Петровски
Старожил форума
да ну чтож это такое :(((
земля пухом погибшим...
опубликовано: 06.03.2018 16:55
РЖД
Старожил форума
Капец...Соболезную....Должна быть видеозапись крушения, там явно все снимается в районе базы....
опубликовано: 06.03.2018 16:55
izki
Старожил форума
Сбили поди?
опубликовано: 06.03.2018 16:57
izki
Старожил форума
Ещё непонятно, откуда там Ан-26, да ещё и наш?
Откуда прилетел?
опубликовано: 06.03.2018 16:58
Konturec
Старожил форума
Вся страна сокрушалась по поводу гибели Романа Филипова, затем обсуждали, сколько русских убили американцы за Евфратом. И вот, минус 32 человека, на ровном месте, без боевых действий - как и в Сочи. Кто там был: военные, летчики, вагнровцы, инженеры военпрома..?
опубликовано: 06.03.2018 16:58
dob
Старожил форума
OSLK 061300Z 21012KT 6000 HZ SCT100 22/13 Q1009
OSLK 061200Z 12008KT 5000 HZ SCT100 25/06 Q1008
OSLK 061100Z 19008KT 5000 HZ SCT100 25/08 Q1008
OSLK 061000Z 27008KT 5000 HZ SCT100 25/07 Q1008
OSLK 060900Z 27008KT 5000 HZ FEW030 SCT100 22/14 Q1008
OSLK 060800Z 02008KT 5000 HZ FEW030 SCT100 22/12 Q1008
опубликовано: 06.03.2018 16:59
Mozart
Старожил форума
Воевать там похоже, безопаснее, чем туда летать. Мои соболезнования
опубликовано: 06.03.2018 16:59
РЖД
Старожил форума
Что то как то внезапно быстро- но лайф соврет и не поморщится.

В Минобороны РФ назвали предварительную причину крушения российского военного самолёта Ан-26. ЧП могло произойти из-за технической неисправности.

— Причиной авиакатастрофы, по предварительной информации, могла стать техническая неисправность, — говорится в заявлении военного ведомства.

В Министерстве обороны добавили, что "огневого воздействия" на Ан-26 с места ЧП не было. Специальная комиссия изучит все возможные причины крушения.
https://life.ru/t/%D0%BD%D0%BE ...
опубликовано: 06.03.2018 17:01
Водитель самолета
Старожил форума
Ему не надо прилетать. Он там давно работал.
опубликовано: 06.03.2018 17:01
Тарен
Старожил форума
   
Mozart
Воевать там похоже, безопаснее, чем туда летать. Мои соболезнования
Не боевые потери превышают боевые в десятки раз.

Печально..... Людей жалко.
опубликовано: 06.03.2018 17:02
Макс 75
Старожил форума
По какой задаче был?
опубликовано: 06.03.2018 17:03
Лесничий
Старожил форума
Земля пухом...
Р.S. У чубатых уже в интернетах начались радостные скачки
опубликовано: 06.03.2018 17:04
Captain Smollett
Молодой боец
...
опубликовано: 06.03.2018 17:04
mlev2000
Старожил форума
>>>Причиной авиакатастрофы, по предварительной информации, могла стать техническая неисправность, — говорится в заявлении военного ведомства.
Расходимся, дальнейшее обсуждение смысла не имеет. Кажется, это первая авиакатастрофа, причина которой установлена так быстро.
опубликовано: 06.03.2018 17:07
sektor
Старожил форума
Искренние соболезнования родным и близким. Сколько же годиков этому Ан-26?
опубликовано: 06.03.2018 17:07
gidroperitt
Старожил форума
...
опубликовано: 06.03.2018 17:08
Captain Smollett
Молодой боец
   
sektor
Искренние соболезнования родным и близким. Сколько же годиков этому Ан-26?
Не старше вас, любезнейший
опубликовано: 06.03.2018 17:08
izki
Старожил форума
== Сколько же годиков этому Ан-26?
От возраста за всю историю авиации разбилось меньше самолётов, чем у человека пальцев.
Главное - своевременное обслуживание, с этим сейчас проблем нет.
опубликовано: 06.03.2018 17:08
OldChap
Старожил форума
...
опубликовано: 06.03.2018 17:10
Culon
Старожил форума
...
опубликовано: 06.03.2018 17:12
Макс 75
Старожил форума
Был приписан к 6-ой армии ВКС.
опубликовано: 06.03.2018 17:13
Макс 75
Старожил форума
За штурвалом разбившегося в Сирии Ан-26 находился майор Смирнов. Всего на борту находились несколько гражданских лиц.

Ан-26 вылетел с аэродрома Квайрес в пригороде Алеппо. После этого он совершил две промежуточные посадки и направился в Хмеймим. Разбился самолет в 14:51 по местному времени.
опубликовано: 06.03.2018 17:14
Viktor49A
Старожил форума
.........
опубликовано: 06.03.2018 17:14
Agri
Старожил форума
Царствие небесное всем невинно погибшим
опубликовано: 06.03.2018 17:15
Mashtak
Старожил форума
Господи... да чтож такое...
опубликовано: 06.03.2018 17:16
РЖД
Старожил форума
С 26 мая 1975 года по 06 марта 2018 года по неофициальным зарубежным данным было потеряно 142 самолётов Ан-26. В катастрофах погибло 1366 человек.....
опубликовано: 06.03.2018 17:16
maybach
Старожил форума
опубликовано: 06.03.2018 17:18
aviator777
Старожил форума
   
Captain Smollett
Не старше вас, любезнейший
Не факт.... Было дело, лет десять назад летал на Ан-26 1976 года.. Но, самолет хороший...
опубликовано: 06.03.2018 17:18
SERGEY78
Новичок-курсант
...
опубликовано: 06.03.2018 17:20
AF1461
Старожил форума
...
опубликовано: 06.03.2018 17:21
РЖД
Старожил форума
Получается это второй 26 в Сирии..Первый сирийских ВВС разбился 17.01 2015 По версии сирийских властей, самолёт ВВС Сирии разбился при заходе на посадку на военной базе «Abu adh Dhuhur». Все военнослужащие(30чел), находившиеся на борту, погибли
опубликовано: 06.03.2018 17:24
Silva
Старожил форума
...
Земля пухом...
РЭБ? 500 м...
опубликовано: 06.03.2018 17:32
Captain Smollett
Молодой боец
Какая РЭБ в 500 м от торца?
опубликовано: 06.03.2018 17:33
Petrovi4
Старожил форума
....
опубликовано: 06.03.2018 17:34
Mozart
Старожил форума
Где-то написано, пожара не было. Может, банально керосина не хватило после двух промежуточных.
опубликовано: 06.03.2018 17:36
AL-F
Старожил форума
...
опубликовано: 06.03.2018 17:37
RR-navi
Старожил форума
Жарко там для Ан-26... Для этих стран специально был разработан Ан-32....
С ув.RR
опубликовано: 06.03.2018 17:37
RR-navi
Старожил форума
Вечного полета......
опубликовано: 06.03.2018 17:38
Бронеоптимист
Старожил форума
...
опубликовано: 06.03.2018 17:39
Летчик в душе
Старожил форума
Земля пухом. Жаль...
опубликовано: 06.03.2018 17:39
пирожок из батонного теста
Старожил форума
2 промежуточные, высотомер?
опубликовано: 06.03.2018 17:39
Captain Smollett
Молодой боец
   
Mozart
Где-то написано, пожара не было. Может, банально керосина не хватило после двух промежуточных.
Как вариант
опубликовано: 06.03.2018 17:39
AF1461
Старожил форума
   
RR-navi
Жарко там для Ан-26... Для этих стран специально был разработан Ан-32....
С ув.RR
Так то летом, нет никакой жары в начале марта. Да и не взлёт то был, а посадка.
опубликовано: 06.03.2018 17:39
Captain Smollett
Молодой боец
   
Mozart
Где-то написано, пожара не было. Может, банально керосина не хватило после двух промежуточных.
Как вариант. Но по РЛЭ должны расчитывать тонну 200 на привод независимо от количество посадок
опубликовано: 06.03.2018 17:41
Silva
Старожил форума
   
Captain Smollett
Какая РЭБ в 500 м от торца?
С земли/с кружащих рядом беспилотников... Не на курорт прилетели.
опубликовано: 06.03.2018 17:41
Анатолий Бойко
Старожил форума
...
опубликовано: 06.03.2018 17:42
Страницы: ← 12345...14151617  





 

 

 

 

Реклама от YouDo
← На главную страницу

Реклама на сайте Обратная связь/Связаться с администрацией
Рейтинг@Mail.ru